sensor_id;sensor_type;location;lat;lon;timestamp;P1;durP1;ratioP1;P2;durP2;ratioP2
21299;SDS011;10809;49.476;11.016;2024-02-14T00:01:30;2.30;;;2.10;;
21299;SDS011;10809;49.476;11.016;2024-02-14T00:04:00;2.27;;;2.00;;
21299;SDS011;10809;49.476;11.016;2024-02-14T00:06:34;2.67;;;2.20;;
21299;SDS011;10809;49.476;11.016;2024-02-14T00:09:08;2.83;;;2.20;;
21299;SDS011;10809;49.476;11.016;2024-02-14T00:11:39;2.33;;;2.10;;
21299;SDS011;10809;49.476;11.016;2024-02-14T00:14:09;2.63;;;2.03;;
21299;SDS011;10809;49.476;11.016;2024-02-14T00:16:40;3.53;;;2.60;;
21299;SDS011;10809;49.476;11.016;2024-02-14T00:19:10;4.90;;;2.47;;
21299;SDS011;10809;49.476;11.016;2024-02-14T00:21:40;2.60;;;2.40;;
21299;SDS011;10809;49.476;11.016;2024-02-14T00:24:11;2.60;;;2.40;;
21299;SDS011;10809;49.476;11.016;2024-02-14T00:26:41;2.07;;;1.90;;
21299;SDS011;10809;49.476;11.016;2024-02-14T00:29:15;4.07;;;2.20;;
21299;SDS011;10809;49.476;11.016;2024-02-14T00:31:45;2.73;;;2.13;;
21299;SDS011;10809;49.476;11.016;2024-02-14T00:34:16;2.30;;;2.10;;
21299;SDS011;10809;49.476;11.016;2024-02-14T00:36:46;2.33;;;1.67;;
21299;SDS011;10809;49.476;11.016;2024-02-14T00:39:17;2.27;;;2.07;;
21299;SDS011;10809;49.476;11.016;2024-02-14T00:41:47;2.20;;;1.63;;
21299;SDS011;10809;49.476;11.016;2024-02-14T00:44:18;3.80;;;2.17;;
21299;SDS011;10809;49.476;11.016;2024-02-14T00:46:49;2.20;;;2.00;;
21299;SDS011;10809;49.476;11.016;2024-02-14T00:49:26;2.40;;;2.20;;
21299;SDS011;10809;49.476;11.016;2024-02-14T00:51:56;2.20;;;1.90;;
21299;SDS011;10809;49.476;11.016;2024-02-14T00:54:27;3.87;;;2.20;;
21299;SDS011;10809;49.476;11.016;2024-02-14T00:56:57;2.87;;;1.67;;
21299;SDS011;10809;49.476;11.016;2024-02-14T00:59:28;2.80;;;2.10;;
21299;SDS011;10809;49.476;11.016;2024-02-14T01:01:59;2.10;;;1.90;;
21299;SDS011;10809;49.476;11.016;2024-02-14T01:04:29;2.10;;;1.87;;
21299;SDS011;10809;49.476;11.016;2024-02-14T01:07:00;4.43;;;2.67;;
21299;SDS011;10809;49.476;11.016;2024-02-14T01:09:33;5.83;;;2.30;;
21299;SDS011;10809;49.476;11.016;2024-02-14T01:12:05;2.53;;;2.10;;
21299;SDS011;10809;49.476;11.016;2024-02-14T01:14:35;2.33;;;2.13;;
21299;SDS011;10809;49.476;11.016;2024-02-14T01:17:06;2.33;;;1.87;;
21299;SDS011;10809;49.476;11.016;2024-02-14T01:19:36;4.13;;;1.67;;
21299;SDS011;10809;49.476;11.016;2024-02-14T01:22:07;2.37;;;1.87;;
21299;SDS011;10809;49.476;11.016;2024-02-14T01:24:38;2.40;;;2.20;;
21299;SDS011;10809;49.476;11.016;2024-02-14T01:27:09;3.43;;;2.30;;
21299;SDS011;10809;49.476;11.016;2024-02-14T01:29:39;3.07;;;2.40;;
21299;SDS011;10809;49.476;11.016;2024-02-14T01:32:14;3.73;;;2.00;;
21299;SDS011;10809;49.476;11.016;2024-02-14T01:34:44;2.47;;;2.27;;
21299;SDS011;10809;49.476;11.016;2024-02-14T01:37:14;3.33;;;2.03;;
21299;SDS011;10809;49.476;11.016;2024-02-14T01:39:45;4.90;;;2.23;;
21299;SDS011;10809;49.476;11.016;2024-02-14T01:42:15;1.60;;;1.47;;
21299;SDS011;10809;49.476;11.016;2024-02-14T01:44:47;2.60;;;1.97;;
21299;SDS011;10809;49.476;11.016;2024-02-14T01:47:17;3.63;;;2.10;;
21299;SDS011;10809;49.476;11.016;2024-02-14T01:49:49;3.23;;;2.07;;
21299;SDS011;10809;49.476;11.016;2024-02-14T01:52:19;3.50;;;2.47;;
21299;SDS011;10809;49.476;11.016;2024-02-14T01:54:51;4.23;;;2.13;;
21299;SDS011;10809;49.476;11.016;2024-02-14T01:57:22;2.50;;;1.73;;
21299;SDS011;10809;49.476;11.016;2024-02-14T01:59:54;3.47;;;2.40;;
21299;SDS011;10809;49.476;11.016;2024-02-14T02:02:27;3.03;;;2.10;;
21299;SDS011;10809;49.476;11.016;2024-02-14T02:04:58;2.83;;;1.83;;
21299;SDS011;10809;49.476;11.016;2024-02-14T02:07:28;2.87;;;2.57;;
21299;SDS011;10809;49.476;11.016;2024-02-14T02:10:00;2.10;;;2.00;;
21299;SDS011;10809;49.476;11.016;2024-02-14T02:12:30;3.03;;;1.50;;
21299;SDS011;10809;49.476;11.016;2024-02-14T02:15:01;2.73;;;2.00;;
21299;SDS011;10809;49.476;11.016;2024-02-14T02:17:32;2.60;;;1.80;;
21299;SDS011;10809;49.476;11.016;2024-02-14T02:20:09;2.33;;;2.00;;
21299;SDS011;10809;49.476;11.016;2024-02-14T02:22:46;2.07;;;1.87;;
21299;SDS011;10809;49.476;11.016;2024-02-14T02:25:20;1.77;;;1.67;;
21299;SDS011;10809;49.476;11.016;2024-02-14T02:27:55;2.57;;;1.97;;
21299;SDS011;10809;49.476;11.016;2024-02-14T02:30:37;4.13;;;2.03;;
21299;SDS011;10809;49.476;11.016;2024-02-14T02:33:08;3.27;;;2.00;;
21299;SDS011;10809;49.476;11.016;2024-02-14T02:35:41;3.20;;;2.00;;
21299;SDS011;10809;49.476;11.016;2024-02-14T02:38:12;2.50;;;1.60;;
21299;SDS011;10809;49.476;11.016;2024-02-14T02:40:43;2.03;;;1.87;;
21299;SDS011;10809;49.476;11.016;2024-02-14T02:43:20;4.37;;;2.30;;
21299;SDS011;10809;49.476;11.016;2024-02-14T02:45:50;1.90;;;1.77;;
21299;SDS011;10809;49.476;11.016;2024-02-14T02:48:21;3.57;;;1.87;;
21299;SDS011;10809;49.476;11.016;2024-02-14T02:50:53;1.70;;;1.60;;
21299;SDS011;10809;49.476;11.016;2024-02-14T02:53:23;2.27;;;1.63;;
21299;SDS011;10809;49.476;11.016;2024-02-14T02:55:54;2.00;;;1.77;;
21299;SDS011;10809;49.476;11.016;2024-02-14T02:58:24;1.90;;;1.63;;
21299;SDS011;10809;49.476;11.016;2024-02-14T03:00:55;1.63;;;1.50;;
21299;SDS011;10809;49.476;11.016;2024-02-14T03:03:27;2.37;;;1.80;;
21299;SDS011;10809;49.476;11.016;2024-02-14T03:05:58;1.30;;;1.20;;
21299;SDS011;10809;49.476;11.016;2024-02-14T03:08:29;3.43;;;1.87;;
21299;SDS011;10809;49.476;11.016;2024-02-14T03:11:06;1.60;;;1.50;;
21299;SDS011;10809;49.476;11.016;2024-02-14T03:13:37;3.87;;;1.57;;
21299;SDS011;10809;49.476;11.016;2024-02-14T03:16:10;2.80;;;1.93;;
21299;SDS011;10809;49.476;11.016;2024-02-14T03:18:41;2.13;;;1.97;;
21299;SDS011;10809;49.476;11.016;2024-02-14T03:21:11;1.80;;;1.70;;
21299;SDS011;10809;49.476;11.016;2024-02-14T03:23:42;1.73;;;1.33;;
21299;SDS011;10809;49.476;11.016;2024-02-14T03:26:14;2.87;;;1.90;;
21299;SDS011;10809;49.476;11.016;2024-02-14T03:28:45;2.13;;;1.47;;
21299;SDS011;10809;49.476;11.016;2024-02-14T03:31:15;1.67;;;1.57;;
21299;SDS011;10809;49.476;11.016;2024-02-14T03:33:46;1.53;;;1.43;;
21299;SDS011;10809;49.476;11.016;2024-02-14T03:36:16;2.50;;;1.80;;
21299;SDS011;10809;49.476;11.016;2024-02-14T03:38:47;1.67;;;1.53;;
21299;SDS011;10809;49.476;11.016;2024-02-14T03:41:17;1.57;;;1.40;;
21299;SDS011;10809;49.476;11.016;2024-02-14T03:43:48;1.80;;;1.70;;
21299;SDS011;10809;49.476;11.016;2024-02-14T03:46:23;1.80;;;1.67;;
21299;SDS011;10809;49.476;11.016;2024-02-14T03:48:54;3.30;;;1.70;;
21299;SDS011;10809;49.476;11.016;2024-02-14T03:51:24;2.80;;;1.60;;
21299;SDS011;10809;49.476;11.016;2024-02-14T03:53:55;1.53;;;1.40;;
21299;SDS011;10809;49.476;11.016;2024-02-14T03:56:28;1.83;;;1.63;;
21299;SDS011;10809;49.476;11.016;2024-02-14T03:59:00;2.37;;;1.70;;
21299;SDS011;10809;49.476;11.016;2024-02-14T04:01:30;1.90;;;1.80;;
21299;SDS011;10809;49.476;11.016;2024-02-14T04:04:01;1.60;;;1.50;;
21299;SDS011;10809;49.476;11.016;2024-02-14T04:06:31;1.83;;;1.73;;
21299;SDS011;10809;49.476;11.016;2024-02-14T04:09:02;1.67;;;1.57;;
21299;SDS011;10809;49.476;11.016;2024-02-14T04:11:32;1.87;;;1.70;;
21299;SDS011;10809;49.476;11.016;2024-02-14T04:14:03;2.27;;;1.77;;
21299;SDS011;10809;49.476;11.016;2024-02-14T04:16:33;1.40;;;1.30;;
21299;SDS011;10809;49.476;11.016;2024-02-14T04:19:04;2.60;;;1.43;;
21299;SDS011;10809;49.476;11.016;2024-02-14T04:21:34;3.27;;;1.80;;
21299;SDS011;10809;49.476;11.016;2024-02-14T04:24:05;2.57;;;2.37;;
21299;SDS011;10809;49.476;11.016;2024-02-14T04:26:35;3.23;;;1.40;;
21299;SDS011;10809;49.476;11.016;2024-02-14T04:29:07;1.50;;;1.40;;
21299;SDS011;10809;49.476;11.016;2024-02-14T04:31:38;1.40;;;1.30;;
21299;SDS011;10809;49.476;11.016;2024-02-14T04:34:08;1.77;;;1.40;;
21299;SDS011;10809;49.476;11.016;2024-02-14T04:36:40;1.97;;;1.50;;
21299;SDS011;10809;49.476;11.016;2024-02-14T04:39:10;2.23;;;1.50;;
21299;SDS011;10809;49.476;11.016;2024-02-14T04:41:41;2.10;;;1.77;;
21299;SDS011;10809;49.476;11.016;2024-02-14T04:44:11;2.10;;;1.60;;
21299;SDS011;10809;49.476;11.016;2024-02-14T04:46:42;1.43;;;1.20;;
21299;SDS011;10809;49.476;11.016;2024-02-14T04:49:13;1.70;;;1.53;;
21299;SDS011;10809;49.476;11.016;2024-02-14T04:51:45;1.27;;;1.17;;
21299;SDS011;10809;49.476;11.016;2024-02-14T04:54:15;2.23;;;1.30;;
21299;SDS011;10809;49.476;11.016;2024-02-14T04:56:46;2.10;;;1.63;;
21299;SDS011;10809;49.476;11.016;2024-02-14T04:59:17;3.20;;;1.60;;
21299;SDS011;10809;49.476;11.016;2024-02-14T05:01:47;2.10;;;1.60;;
21299;SDS011;10809;49.476;11.016;2024-02-14T05:04:18;1.93;;;1.70;;
21299;SDS011;10809;49.476;11.016;2024-02-14T05:06:48;2.67;;;1.50;;
21299;SDS011;10809;49.476;11.016;2024-02-14T05:09:19;1.90;;;1.53;;
21299;SDS011;10809;49.476;11.016;2024-02-14T05:11:50;2.27;;;1.60;;
21299;SDS011;10809;49.476;11.016;2024-02-14T05:14:20;2.83;;;1.70;;
21299;SDS011;10809;49.476;11.016;2024-02-14T05:16:50;3.30;;;1.40;;
21299;SDS011;10809;49.476;11.016;2024-02-14T05:19:21;1.57;;;1.47;;
21299;SDS011;10809;49.476;11.016;2024-02-14T05:21:51;1.53;;;1.43;;
21299;SDS011;10809;49.476;11.016;2024-02-14T05:24:22;3.20;;;1.30;;
21299;SDS011;10809;49.476;11.016;2024-02-14T05:26:53;1.40;;;1.30;;
21299;SDS011;10809;49.476;11.016;2024-02-14T05:29:23;2.03;;;1.63;;
21299;SDS011;10809;49.476;11.016;2024-02-14T05:31:54;1.50;;;1.40;;
21299;SDS011;10809;49.476;11.016;2024-02-14T05:34:25;3.37;;;1.37;;
21299;SDS011;10809;49.476;11.016;2024-02-14T05:36:55;1.83;;;1.70;;
21299;SDS011;10809;49.476;11.016;2024-02-14T05:39:26;2.07;;;1.83;;
21299;SDS011;10809;49.476;11.016;2024-02-14T05:41:56;1.67;;;1.57;;
21299;SDS011;10809;49.476;11.016;2024-02-14T05:44:27;6.57;;;1.57;;
21299;SDS011;10809;49.476;11.016;2024-02-14T05:47:00;2.33;;;1.37;;
21299;SDS011;10809;49.476;11.016;2024-02-14T05:49:30;1.33;;;1.23;;
21299;SDS011;10809;49.476;11.016;2024-02-14T05:52:01;1.37;;;1.17;;
21299;SDS011;10809;49.476;11.016;2024-02-14T05:54:31;1.60;;;1.50;;
21299;SDS011;10809;49.476;11.016;2024-02-14T05:57:01;1.60;;;1.50;;
21299;SDS011;10809;49.476;11.016;2024-02-14T05:59:32;1.77;;;1.67;;
21299;SDS011;10809;49.476;11.016;2024-02-14T06:02:02;1.83;;;1.40;;
21299;SDS011;10809;49.476;11.016;2024-02-14T06:04:35;1.40;;;1.30;;
21299;SDS011;10809;49.476;11.016;2024-02-14T06:07:06;2.70;;;1.13;;
21299;SDS011;10809;49.476;11.016;2024-02-14T06:09:38;2.47;;;1.27;;
21299;SDS011;10809;49.476;11.016;2024-02-14T06:12:08;5.40;;;1.40;;
21299;SDS011;10809;49.476;11.016;2024-02-14T06:14:42;1.47;;;1.37;;
21299;SDS011;10809;49.476;11.016;2024-02-14T06:17:15;1.70;;;1.50;;
21299;SDS011;10809;49.476;11.016;2024-02-14T06:19:46;1.17;;;1.10;;
21299;SDS011;10809;49.476;11.016;2024-02-14T06:22:16;1.60;;;1.50;;
21299;SDS011;10809;49.476;11.016;2024-02-14T06:24:47;1.73;;;1.20;;
21299;SDS011;10809;49.476;11.016;2024-02-14T06:27:19;3.27;;;2.00;;
21299;SDS011;10809;49.476;11.016;2024-02-14T06:29:49;2.97;;;1.70;;
21299;SDS011;10809;49.476;11.016;2024-02-14T06:32:22;4.23;;;1.70;;
21299;SDS011;10809;49.476;11.016;2024-02-14T06:34:53;1.63;;;1.53;;
21299;SDS011;10809;49.476;11.016;2024-02-14T06:37:23;2.50;;;1.70;;
21299;SDS011;10809;49.476;11.016;2024-02-14T06:39:54;2.13;;;1.70;;
21299;SDS011;10809;49.476;11.016;2024-02-14T06:42:24;2.20;;;2.00;;
21299;SDS011;10809;49.476;11.016;2024-02-14T06:44:54;2.20;;;1.60;;
21299;SDS011;10809;49.476;11.016;2024-02-14T06:47:25;2.13;;;1.90;;
21299;SDS011;10809;49.476;11.016;2024-02-14T06:49:59;2.63;;;1.53;;
21299;SDS011;10809;49.476;11.016;2024-02-14T06:52:30;4.17;;;1.73;;
21299;SDS011;10809;49.476;11.016;2024-02-14T06:55:03;2.53;;;1.87;;
21299;SDS011;10809;49.476;11.016;2024-02-14T06:57:34;2.93;;;1.93;;
21299;SDS011;10809;49.476;11.016;2024-02-14T07:00:04;2.03;;;1.90;;
21299;SDS011;10809;49.476;11.016;2024-02-14T07:02:36;4.27;;;2.00;;
21299;SDS011;10809;49.476;11.016;2024-02-14T07:05:07;2.53;;;1.80;;
21299;SDS011;10809;49.476;11.016;2024-02-14T07:07:41;3.17;;;2.10;;
21299;SDS011;10809;49.476;11.016;2024-02-14T07:10:12;1.37;;;1.27;;
21299;SDS011;10809;49.476;11.016;2024-02-14T07:12:42;2.43;;;1.90;;
21299;SDS011;10809;49.476;11.016;2024-02-14T07:15:16;3.30;;;2.03;;
21299;SDS011;10809;49.476;11.016;2024-02-14T07:17:47;3.73;;;2.17;;
21299;SDS011;10809;49.476;11.016;2024-02-14T07:20:21;3.13;;;2.13;;
21299;SDS011;10809;49.476;11.016;2024-02-14T07:22:52;4.53;;;2.20;;
21299;SDS011;10809;49.476;11.016;2024-02-14T07:25:23;2.97;;;2.03;;
21299;SDS011;10809;49.476;11.016;2024-02-14T07:27:53;3.10;;;1.90;;
21299;SDS011;10809;49.476;11.016;2024-02-14T07:30:24;2.70;;;2.00;;
21299;SDS011;10809;49.476;11.016;2024-02-14T07:32:54;2.93;;;2.13;;
21299;SDS011;10809;49.476;11.016;2024-02-14T07:35:28;2.77;;;1.90;;
21299;SDS011;10809;49.476;11.016;2024-02-14T07:37:59;3.90;;;2.00;;
21299;SDS011;10809;49.476;11.016;2024-02-14T07:40:29;2.27;;;2.07;;
21299;SDS011;10809;49.476;11.016;2024-02-14T07:43:01;3.43;;;2.00;;
21299;SDS011;10809;49.476;11.016;2024-02-14T07:45:32;5.03;;;1.90;;
21299;SDS011;10809;49.476;11.016;2024-02-14T07:48:02;2.37;;;2.10;;
21299;SDS011;10809;49.476;11.016;2024-02-14T07:50:33;4.13;;;2.43;;
21299;SDS011;10809;49.476;11.016;2024-02-14T07:53:04;3.03;;;2.23;;
21299;SDS011;10809;49.476;11.016;2024-02-14T07:55:34;2.20;;;2.00;;
21299;SDS011;10809;49.476;11.016;2024-02-14T07:58:04;2.23;;;2.03;;
21299;SDS011;10809;49.476;11.016;2024-02-14T08:00:35;2.20;;;1.47;;
21299;SDS011;10809;49.476;11.016;2024-02-14T08:03:05;4.63;;;2.90;;
21299;SDS011;10809;49.476;11.016;2024-02-14T08:05:36;3.67;;;2.20;;
21299;SDS011;10809;49.476;11.016;2024-02-14T08:08:06;2.63;;;2.43;;
21299;SDS011;10809;49.476;11.016;2024-02-14T08:10:36;2.50;;;2.17;;
21299;SDS011;10809;49.476;11.016;2024-02-14T08:13:07;3.67;;;2.50;;
21299;SDS011;10809;49.476;11.016;2024-02-14T08:15:37;3.97;;;3.30;;
21299;SDS011;10809;49.476;11.016;2024-02-14T08:18:07;2.40;;;2.20;;
21299;SDS011;10809;49.476;11.016;2024-02-14T08:20:38;3.93;;;2.70;;
21299;SDS011;10809;49.476;11.016;2024-02-14T08:23:08;2.60;;;2.40;;
21299;SDS011;10809;49.476;11.016;2024-02-14T08:25:39;2.53;;;2.33;;
21299;SDS011;10809;49.476;11.016;2024-02-14T08:28:11;2.97;;;2.43;;
21299;SDS011;10809;49.476;11.016;2024-02-14T08:30:41;3.20;;;2.43;;
21299;SDS011;10809;49.476;11.016;2024-02-14T08:33:11;2.40;;;1.77;;
21299;SDS011;10809;49.476;11.016;2024-02-14T08:35:42;3.73;;;2.53;;
21299;SDS011;10809;49.476;11.016;2024-02-14T08:38:15;2.67;;;2.27;;
21299;SDS011;10809;49.476;11.016;2024-02-14T08:40:46;4.37;;;2.17;;
21299;SDS011;10809;49.476;11.016;2024-02-14T08:43:16;4.23;;;2.27;;
21299;SDS011;10809;49.476;11.016;2024-02-14T08:45:46;4.07;;;2.43;;
21299;SDS011;10809;49.476;11.016;2024-02-14T08:48:17;2.93;;;2.60;;
21299;SDS011;10809;49.476;11.016;2024-02-14T08:50:47;4.13;;;2.20;;
21299;SDS011;10809;49.476;11.016;2024-02-14T08:53:18;2.60;;;2.40;;
21299;SDS011;10809;49.476;11.016;2024-02-14T08:55:48;4.93;;;1.93;;
21299;SDS011;10809;49.476;11.016;2024-02-14T08:58:19;3.07;;;2.60;;
21299;SDS011;10809;49.476;11.016;2024-02-14T09:00:49;4.77;;;1.97;;
21299;SDS011;10809;49.476;11.016;2024-02-14T09:03:20;3.73;;;2.37;;
21299;SDS011;10809;49.476;11.016;2024-02-14T09:05:50;2.60;;;2.40;;
21299;SDS011;10809;49.476;11.016;2024-02-14T09:08:23;3.60;;;2.57;;
21299;SDS011;10809;49.476;11.016;2024-02-14T09:10:54;3.53;;;2.37;;
21299;SDS011;10809;49.476;11.016;2024-02-14T09:13:24;3.97;;;2.47;;
21299;SDS011;10809;49.476;11.016;2024-02-14T09:15:55;2.97;;;2.67;;
21299;SDS011;10809;49.476;11.016;2024-02-14T09:18:26;4.00;;;2.40;;
21299;SDS011;10809;49.476;11.016;2024-02-14T09:20:57;2.30;;;2.00;;
21299;SDS011;10809;49.476;11.016;2024-02-14T09:23:33;3.47;;;2.27;;
21299;SDS011;10809;49.476;11.016;2024-02-14T09:26:04;3.07;;;2.03;;
21299;SDS011;10809;49.476;11.016;2024-02-14T09:31:52;2.60;;;2.10;;
21299;SDS011;10809;49.476;11.016;2024-02-14T09:34:25;3.13;;;2.37;;
21299;SDS011;10809;49.476;11.016;2024-02-14T09:36:55;2.00;;;1.80;;
21299;SDS011;10809;49.476;11.016;2024-02-14T09:39:27;1.90;;;1.70;;
21299;SDS011;10809;49.476;11.016;2024-02-14T09:42:00;3.23;;;2.00;;
21299;SDS011;10809;49.476;11.016;2024-02-14T09:44:32;2.27;;;2.07;;
21299;SDS011;10809;49.476;11.016;2024-02-14T09:47:04;5.13;;;2.17;;
21299;SDS011;10809;49.476;11.016;2024-02-14T09:49:35;4.70;;;2.50;;
21299;SDS011;10809;49.476;11.016;2024-02-14T09:52:06;4.50;;;2.30;;
21299;SDS011;10809;49.476;11.016;2024-02-14T09:54:39;3.07;;;2.13;;
21299;SDS011;10809;49.476;11.016;2024-02-14T09:57:10;4.70;;;2.13;;
21299;SDS011;10809;49.476;11.016;2024-02-14T09:59:42;3.40;;;2.10;;
21299;SDS011;10809;49.476;11.016;2024-02-14T10:02:14;2.20;;;1.80;;
21299;SDS011;10809;49.476;11.016;2024-02-14T10:04:46;2.73;;;1.73;;
21299;SDS011;10809;49.476;11.016;2024-02-14T10:07:17;1.97;;;1.50;;
21299;SDS011;10809;49.476;11.016;2024-02-14T10:09:48;1.83;;;1.70;;
21299;SDS011;10809;49.476;11.016;2024-02-14T10:12:19;1.73;;;1.50;;
21299;SDS011;10809;49.476;11.016;2024-02-14T10:14:49;2.93;;;1.87;;
21299;SDS011;10809;49.476;11.016;2024-02-14T10:17:20;2.67;;;1.50;;
21299;SDS011;10809;49.476;11.016;2024-02-14T10:20:00;3.23;;;1.80;;
21299;SDS011;10809;49.476;11.016;2024-02-14T10:22:35;1.73;;;1.33;;
21299;SDS011;10809;49.476;11.016;2024-02-14T10:25:06;2.63;;;1.63;;
21299;SDS011;10809;49.476;11.016;2024-02-14T10:27:43;2.13;;;1.87;;
21299;SDS011;10809;49.476;11.016;2024-02-14T10:30:14;2.27;;;1.60;;
21299;SDS011;10809;49.476;11.016;2024-02-14T10:32:44;2.27;;;1.80;;
21299;SDS011;10809;49.476;11.016;2024-02-14T10:35:20;1.83;;;1.63;;
21299;SDS011;10809;49.476;11.016;2024-02-14T10:37:51;2.90;;;1.53;;
21299;SDS011;10809;49.476;11.016;2024-02-14T10:40:23;2.57;;;1.70;;
21299;SDS011;10809;49.476;11.016;2024-02-14T10:42:54;2.47;;;1.60;;
21299;SDS011;10809;49.476;11.016;2024-02-14T10:45:27;2.07;;;1.40;;
21299;SDS011;10809;49.476;11.016;2024-02-14T10:47:58;1.57;;;1.40;;
21299;SDS011;10809;49.476;11.016;2024-02-14T10:50:34;2.10;;;1.40;;
21299;SDS011;10809;49.476;11.016;2024-02-14T10:53:06;2.70;;;1.80;;
21299;SDS011;10809;49.476;11.016;2024-02-14T10:55:40;2.47;;;1.50;;
21299;SDS011;10809;49.476;11.016;2024-02-14T10:58:18;1.50;;;1.40;;
21299;SDS011;10809;49.476;11.016;2024-02-14T11:00:49;1.40;;;0.87;;
21299;SDS011;10809;49.476;11.016;2024-02-14T11:03:19;0.73;;;0.53;;
21299;SDS011;10809;49.476;11.016;2024-02-14T11:05:50;0.77;;;0.70;;
21299;SDS011;10809;49.476;11.016;2024-02-14T11:08:23;1.40;;;0.70;;
21299;SDS011;10809;49.476;11.016;2024-02-14T11:10:56;1.10;;;0.80;;
21299;SDS011;10809;49.476;11.016;2024-02-14T11:13:28;1.83;;;1.10;;
21299;SDS011;10809;49.476;11.016;2024-02-14T11:16:04;0.83;;;0.53;;
21299;SDS011;10809;49.476;11.016;2024-02-14T11:18:35;0.50;;;0.50;;
21299;SDS011;10809;49.476;11.016;2024-02-14T11:21:15;1.83;;;1.20;;
21299;SDS011;10809;49.476;11.016;2024-02-14T11:23:52;1.43;;;1.20;;
21299;SDS011;10809;49.476;11.016;2024-02-14T11:26:24;1.53;;;0.97;;
21299;SDS011;10809;49.476;11.016;2024-02-14T11:29:00;1.40;;;0.60;;
21299;SDS011;10809;49.476;11.016;2024-02-14T11:31:35;1.20;;;0.60;;
21299;SDS011;10809;49.476;11.016;2024-02-14T11:34:07;2.10;;;0.97;;
21299;SDS011;10809;49.476;11.016;2024-02-14T11:36:39;0.70;;;0.60;;
21299;SDS011;10809;49.476;11.016;2024-02-14T11:39:11;0.50;;;0.50;;
21299;SDS011;10809;49.476;11.016;2024-02-14T11:41:42;1.60;;;0.50;;
21299;SDS011;10809;49.476;11.016;2024-02-14T11:44:12;0.97;;;0.73;;
21299;SDS011;10809;49.476;11.016;2024-02-14T11:46:49;0.37;;;0.37;;
21299;SDS011;10809;49.476;11.016;2024-02-14T11:49:21;0.40;;;0.40;;
21299;SDS011;10809;49.476;11.016;2024-02-14T11:51:55;0.60;;;0.40;;
21299;SDS011;10809;49.476;11.016;2024-02-14T11:54:27;0.60;;;0.60;;
21299;SDS011;10809;49.476;11.016;2024-02-14T11:57:03;0.40;;;0.40;;
21299;SDS011;10809;49.476;11.016;2024-02-14T11:59:34;1.00;;;0.50;;
21299;SDS011;10809;49.476;11.016;2024-02-14T12:02:04;0.40;;;0.40;;
21299;SDS011;10809;49.476;11.016;2024-02-14T12:07:25;0.40;;;0.40;;
21299;SDS011;10809;49.476;11.016;2024-02-14T12:13:49;0.40;;;0.40;;
21299;SDS011;10809;49.476;11.016;2024-02-14T12:16:20;0.73;;;0.30;;
21299;SDS011;10809;49.476;11.016;2024-02-14T12:19:04;2.90;;;0.60;;
21299;SDS011;10809;49.476;11.016;2024-02-14T12:21:38;0.40;;;0.30;;
21299;SDS011;10809;49.476;11.016;2024-02-14T12:24:18;0.43;;;0.43;;
21299;SDS011;10809;49.476;11.016;2024-02-14T12:26:53;0.83;;;0.43;;
21299;SDS011;10809;49.476;11.016;2024-02-14T12:29:34;0.30;;;0.30;;
21299;SDS011;10809;49.476;11.016;2024-02-14T12:32:05;0.40;;;0.23;;
21299;SDS011;10809;49.476;11.016;2024-02-14T12:34:37;0.40;;;0.30;;
21299;SDS011;10809;49.476;11.016;2024-02-14T12:37:07;0.60;;;0.50;;
21299;SDS011;10809;49.476;11.016;2024-02-14T12:39:39;0.40;;;0.30;;
21299;SDS011;10809;49.476;11.016;2024-02-14T12:42:10;1.37;;;0.40;;
21299;SDS011;10809;49.476;11.016;2024-02-14T12:44:40;0.27;;;0.27;;
21299;SDS011;10809;49.476;11.016;2024-02-14T12:47:14;1.17;;;0.30;;
21299;SDS011;10809;49.476;11.016;2024-02-14T12:49:45;0.30;;;0.30;;
21299;SDS011;10809;49.476;11.016;2024-02-14T12:52:15;0.60;;;0.30;;
21299;SDS011;10809;49.476;11.016;2024-02-14T12:54:49;0.40;;;0.40;;
21299;SDS011;10809;49.476;11.016;2024-02-14T12:57:19;0.53;;;0.53;;
21299;SDS011;10809;49.476;11.016;2024-02-14T12:59:51;0.80;;;0.47;;
21299;SDS011;10809;49.476;11.016;2024-02-14T13:02:22;0.53;;;0.30;;
21299;SDS011;10809;49.476;11.016;2024-02-14T13:04:52;0.30;;;0.30;;
21299;SDS011;10809;49.476;11.016;2024-02-14T13:10:19;0.87;;;0.30;;
21299;SDS011;10809;49.476;11.016;2024-02-14T13:12:50;0.73;;;0.30;;
21299;SDS011;10809;49.476;11.016;2024-02-14T13:15:21;1.50;;;0.60;;
21299;SDS011;10809;49.476;11.016;2024-02-14T13:18:00;0.53;;;0.40;;
21299;SDS011;10809;49.476;11.016;2024-02-14T13:20:32;0.83;;;0.60;;
21299;SDS011;10809;49.476;11.016;2024-02-14T13:23:03;0.80;;;0.40;;
21299;SDS011;10809;49.476;11.016;2024-02-14T13:25:33;0.70;;;0.30;;
21299;SDS011;10809;49.476;11.016;2024-02-14T13:28:04;0.40;;;0.30;;
21299;SDS011;10809;49.476;11.016;2024-02-14T13:30:35;0.97;;;0.40;;
21299;SDS011;10809;49.476;11.016;2024-02-14T13:33:06;0.37;;;0.37;;
21299;SDS011;10809;49.476;11.016;2024-02-14T13:35:36;0.50;;;0.20;;
21299;SDS011;10809;49.476;11.016;2024-02-14T13:38:08;0.97;;;0.30;;
21299;SDS011;10809;49.476;11.016;2024-02-14T13:40:47;0.67;;;0.27;;
21299;SDS011;10809;49.476;11.016;2024-02-14T13:43:18;1.17;;;0.30;;
21299;SDS011;10809;49.476;11.016;2024-02-14T13:45:49;1.50;;;0.30;;
21299;SDS011;10809;49.476;11.016;2024-02-14T13:48:23;0.47;;;0.47;;
21299;SDS011;10809;49.476;11.016;2024-02-14T13:50:54;0.40;;;0.30;;
21299;SDS011;10809;49.476;11.016;2024-02-14T13:53:24;0.30;;;0.30;;
21299;SDS011;10809;49.476;11.016;2024-02-14T13:55:54;0.47;;;0.47;;
21299;SDS011;10809;49.476;11.016;2024-02-14T13:58:25;2.27;;;0.50;;
21299;SDS011;10809;49.476;11.016;2024-02-14T14:00:56;0.37;;;0.37;;
21299;SDS011;10809;49.476;11.016;2024-02-14T14:03:26;0.47;;;0.40;;
21299;SDS011;10809;49.476;11.016;2024-02-14T14:05:57;1.77;;;0.60;;
21299;SDS011;10809;49.476;11.016;2024-02-14T14:08:27;4.67;;;0.50;;
21299;SDS011;10809;49.476;11.016;2024-02-14T14:10:57;0.30;;;0.30;;
21299;SDS011;10809;49.476;11.016;2024-02-14T14:13:28;1.50;;;0.30;;
21299;SDS011;10809;49.476;11.016;2024-02-14T14:16:00;1.37;;;0.40;;
21299;SDS011;10809;49.476;11.016;2024-02-14T14:18:31;0.80;;;0.40;;
21299;SDS011;10809;49.476;11.016;2024-02-14T14:21:02;0.73;;;0.60;;
21299;SDS011;10809;49.476;11.016;2024-02-14T14:23:33;0.40;;;0.40;;
21299;SDS011;10809;49.476;11.016;2024-02-14T14:26:04;0.83;;;0.60;;
21299;SDS011;10809;49.476;11.016;2024-02-14T14:28:34;3.50;;;2.27;;
21299;SDS011;10809;49.476;11.016;2024-02-14T14:31:08;2.13;;;1.50;;
21299;SDS011;10809;49.476;11.016;2024-02-14T14:33:41;1.33;;;1.07;;
21299;SDS011;10809;49.476;11.016;2024-02-14T14:36:12;0.60;;;0.57;;
21299;SDS011;10809;49.476;11.016;2024-02-14T14:38:42;0.50;;;0.50;;
21299;SDS011;10809;49.476;11.016;2024-02-14T14:41:13;1.27;;;0.40;;
21299;SDS011;10809;49.476;11.016;2024-02-14T14:43:44;1.67;;;0.73;;
21299;SDS011;10809;49.476;11.016;2024-02-14T14:46:15;1.97;;;0.63;;
21299;SDS011;10809;49.476;11.016;2024-02-14T14:48:45;0.40;;;0.40;;
21299;SDS011;10809;49.476;11.016;2024-02-14T14:51:16;0.30;;;0.30;;
21299;SDS011;10809;49.476;11.016;2024-02-14T14:53:46;0.23;;;0.23;;
21299;SDS011;10809;49.476;11.016;2024-02-14T14:56:16;0.67;;;0.53;;
21299;SDS011;10809;49.476;11.016;2024-02-14T14:58:47;0.67;;;0.53;;
21299;SDS011;10809;49.476;11.016;2024-02-14T15:01:17;0.60;;;0.50;;
21299;SDS011;10809;49.476;11.016;2024-02-14T15:03:47;0.83;;;0.53;;
21299;SDS011;10809;49.476;11.016;2024-02-14T15:06:18;0.40;;;0.40;;
21299;SDS011;10809;49.476;11.016;2024-02-14T15:08:48;1.83;;;0.40;;
21299;SDS011;10809;49.476;11.016;2024-02-14T15:11:19;0.60;;;0.50;;